sensor_id;sensor_type;location;lat;lon;timestamp;temperature;humidity
60495;DHT22;46342;49.046;11.920;2022-11-20T00:01:08;4.30;71.20
60495;DHT22;46342;49.046;11.920;2022-11-20T00:03:34;4.30;71.10
60495;DHT22;46342;49.046;11.920;2022-11-20T00:06:01;4.30;71.10
60495;DHT22;46342;49.046;11.920;2022-11-20T00:08:27;4.20;71.10
60495;DHT22;46342;49.046;11.920;2022-11-20T00:10:53;4.20;71.00
60495;DHT22;46342;49.046;11.920;2022-11-20T00:13:18;4.20;71.00
60495;DHT22;46342;49.046;11.920;2022-11-20T00:15:44;4.20;71.00
60495;DHT22;46342;49.046;11.920;2022-11-20T00:18:09;4.20;71.00
60495;DHT22;46342;49.046;11.920;2022-11-20T00:20:35;4.20;71.00
60495;DHT22;46342;49.046;11.920;2022-11-20T00:23:00;4.20;71.00
60495;DHT22;46342;49.046;11.920;2022-11-20T00:25:26;4.20;71.00
60495;DHT22;46342;49.046;11.920;2022-11-20T00:27:51;4.20;71.10
60495;DHT22;46342;49.046;11.920;2022-11-20T00:30:17;4.20;71.10
60495;DHT22;46342;49.046;11.920;2022-11-20T00:32:43;4.20;71.20
60495;DHT22;46342;49.046;11.920;2022-11-20T00:35:08;4.20;71.20
60495;DHT22;46342;49.046;11.920;2022-11-20T00:37:34;4.20;71.20
60495;DHT22;46342;49.046;11.920;2022-11-20T00:40:00;4.20;71.20
60495;DHT22;46342;49.046;11.920;2022-11-20T00:42:25;4.20;71.10
60495;DHT22;46342;49.046;11.920;2022-11-20T00:44:51;4.20;71.20
60495;DHT22;46342;49.046;11.920;2022-11-20T00:47:16;4.20;71.20
60495;DHT22;46342;49.046;11.920;2022-11-20T00:49:42;4.30;71.40
60495;DHT22;46342;49.046;11.920;2022-11-20T00:52:08;4.20;71.30
60495;DHT22;46342;49.046;11.920;2022-11-20T00:54:33;4.20;71.30
60495;DHT22;46342;49.046;11.920;2022-11-20T00:56:59;4.20;71.30
60495;DHT22;46342;49.046;11.920;2022-11-20T00:59:24;4.20;71.30
60495;DHT22;46342;49.046;11.920;2022-11-20T01:01:50;4.20;71.30
60495;DHT22;46342;49.046;11.920;2022-11-20T01:04:15;4.20;71.30
60495;DHT22;46342;49.046;11.920;2022-11-20T01:06:41;4.20;71.00
60495;DHT22;46342;49.046;11.920;2022-11-20T01:09:13;4.20;70.90
60495;DHT22;46342;49.046;11.920;2022-11-20T01:11:42;4.30;71.00
60495;DHT22;46342;49.046;11.920;2022-11-20T01:14:17;4.20;70.90
60495;DHT22;46342;49.046;11.920;2022-11-20T01:16:46;4.20;70.90
60495;DHT22;46342;49.046;11.920;2022-11-20T01:19:15;4.20;70.90
60495;DHT22;46342;49.046;11.920;2022-11-20T01:21:42;4.20;71.00
60495;DHT22;46342;49.046;11.920;2022-11-20T01:24:12;4.20;71.10
60495;DHT22;46342;49.046;11.920;2022-11-20T01:26:40;4.20;71.10
60495;DHT22;46342;49.046;11.920;2022-11-20T01:29:07;4.20;71.20
60495;DHT22;46342;49.046;11.920;2022-11-20T01:31:34;4.20;71.10
60495;DHT22;46342;49.046;11.920;2022-11-20T01:34:02;4.20;70.90
60495;DHT22;46342;49.046;11.920;2022-11-20T01:36:29;4.20;70.80
60495;DHT22;46342;49.046;11.920;2022-11-20T01:38:58;4.30;71.00
60495;DHT22;46342;49.046;11.920;2022-11-20T01:41:25;4.20;71.00
60495;DHT22;46342;49.046;11.920;2022-11-20T01:44:12;4.20;71.10
60495;DHT22;46342;49.046;11.920;2022-11-20T01:46:59;4.20;71.20
60495;DHT22;46342;49.046;11.920;2022-11-20T01:49:47;4.20;71.30
60495;DHT22;46342;49.046;11.920;2022-11-20T01:55:32;4.20;71.40
60495;DHT22;46342;49.046;11.920;2022-11-20T01:58:00;4.20;71.50
60495;DHT22;46342;49.046;11.920;2022-11-20T02:00:26;4.20;71.50
60495;DHT22;46342;49.046;11.920;2022-11-20T02:02:57;4.20;71.50
60495;DHT22;46342;49.046;11.920;2022-11-20T02:05:28;4.20;71.60
60495;DHT22;46342;49.046;11.920;2022-11-20T02:07:58;4.20;71.50
60495;DHT22;46342;49.046;11.920;2022-11-20T02:10:26;4.20;71.50
60495;DHT22;46342;49.046;11.920;2022-11-20T02:12:52;4.30;71.50
60495;DHT22;46342;49.046;11.920;2022-11-20T02:15:37;4.30;71.50
60495;DHT22;46342;49.046;11.920;2022-11-20T02:18:03;4.30;71.50
60495;DHT22;46342;49.046;11.920;2022-11-20T02:20:28;4.30;71.50
60495;DHT22;46342;49.046;11.920;2022-11-20T02:23:08;4.30;71.60
60495;DHT22;46342;49.046;11.920;2022-11-20T02:25:37;4.30;71.60
60495;DHT22;46342;49.046;11.920;2022-11-20T02:28:05;4.30;71.50
60495;DHT22;46342;49.046;11.920;2022-11-20T02:30:31;4.30;71.40
60495;DHT22;46342;49.046;11.920;2022-11-20T02:32:57;4.30;71.50
60495;DHT22;46342;49.046;11.920;2022-11-20T02:37:58;4.30;72.40
60495;DHT22;46342;49.046;11.920;2022-11-20T02:40:24;4.30;71.40
60495;DHT22;46342;49.046;11.920;2022-11-20T02:42:55;4.30;71.40
60495;DHT22;46342;49.046;11.920;2022-11-20T02:45:21;4.30;71.40
60495;DHT22;46342;49.046;11.920;2022-11-20T02:47:48;4.30;71.50
60495;DHT22;46342;49.046;11.920;2022-11-20T02:50:14;4.30;71.50
60495;DHT22;46342;49.046;11.920;2022-11-20T02:52:39;4.30;71.40
60495;DHT22;46342;49.046;11.920;2022-11-20T02:55:05;4.30;71.40
60495;DHT22;46342;49.046;11.920;2022-11-20T02:57:31;4.30;71.40
60495;DHT22;46342;49.046;11.920;2022-11-20T02:59:56;4.30;71.40
60495;DHT22;46342;49.046;11.920;2022-11-20T03:02:22;4.30;71.40
60495;DHT22;46342;49.046;11.920;2022-11-20T03:04:48;4.30;71.50
60495;DHT22;46342;49.046;11.920;2022-11-20T03:07:13;4.30;71.50
60495;DHT22;46342;49.046;11.920;2022-11-20T03:09:39;4.40;71.60
60495;DHT22;46342;49.046;11.920;2022-11-20T03:12:05;4.30;71.50
60495;DHT22;46342;49.046;11.920;2022-11-20T03:14:31;4.30;71.50
60495;DHT22;46342;49.046;11.920;2022-11-20T03:16:56;4.30;71.50
60495;DHT22;46342;49.046;11.920;2022-11-20T03:19:22;4.30;71.50
60495;DHT22;46342;49.046;11.920;2022-11-20T03:21:48;4.30;71.60
60495;DHT22;46342;49.046;11.920;2022-11-20T03:24:14;4.30;72.50
60495;DHT22;46342;49.046;11.920;2022-11-20T03:26:40;4.40;71.70
60495;DHT22;46342;49.046;11.920;2022-11-20T03:29:07;4.30;71.60
60495;DHT22;46342;49.046;11.920;2022-11-20T03:31:35;4.40;71.70
60495;DHT22;46342;49.046;11.920;2022-11-20T03:34:01;4.40;71.70
60495;DHT22;46342;49.046;11.920;2022-11-20T03:36:28;4.40;72.60
60495;DHT22;46342;49.046;11.920;2022-11-20T03:38:55;4.40;71.70
60495;DHT22;46342;49.046;11.920;2022-11-20T03:41:31;4.40;71.70
60495;DHT22;46342;49.046;11.920;2022-11-20T03:44:02;4.40;71.80
60495;DHT22;46342;49.046;11.920;2022-11-20T03:46:29;4.40;71.80
60495;DHT22;46342;49.046;11.920;2022-11-20T03:48:55;4.40;71.80
60495;DHT22;46342;49.046;11.920;2022-11-20T03:53:49;4.40;71.80
60495;DHT22;46342;49.046;11.920;2022-11-20T03:56:17;4.40;71.90
60495;DHT22;46342;49.046;11.920;2022-11-20T03:58:42;4.40;71.80
60495;DHT22;46342;49.046;11.920;2022-11-20T04:03:36;4.50;71.90
60495;DHT22;46342;49.046;11.920;2022-11-20T04:06:07;4.50;71.90
60495;DHT22;46342;49.046;11.920;2022-11-20T04:08:32;4.50;72.00
60495;DHT22;46342;49.046;11.920;2022-11-20T04:11:12;4.50;71.90
60495;DHT22;46342;49.046;11.920;2022-11-20T04:13:38;4.50;72.00
60495;DHT22;46342;49.046;11.920;2022-11-20T04:16:05;4.50;71.90
60495;DHT22;46342;49.046;11.920;2022-11-20T04:18:31;4.50;71.90
60495;DHT22;46342;49.046;11.920;2022-11-20T04:20:57;4.50;71.90
60495;DHT22;46342;49.046;11.920;2022-11-20T04:23:24;4.50;71.90
60495;DHT22;46342;49.046;11.920;2022-11-20T04:25:49;4.50;71.90
60495;DHT22;46342;49.046;11.920;2022-11-20T04:28:15;4.50;71.90
60495;DHT22;46342;49.046;11.920;2022-11-20T04:30:40;4.50;71.90
60495;DHT22;46342;49.046;11.920;2022-11-20T04:33:06;4.50;71.90
60495;DHT22;46342;49.046;11.920;2022-11-20T04:35:35;4.60;72.00
60495;DHT22;46342;49.046;11.920;2022-11-20T04:38:01;4.50;72.00
60495;DHT22;46342;49.046;11.920;2022-11-20T04:40:27;4.60;72.00
60495;DHT22;46342;49.046;11.920;2022-11-20T04:42:54;4.60;72.10
60495;DHT22;46342;49.046;11.920;2022-11-20T04:45:20;4.50;72.00
60495;DHT22;46342;49.046;11.920;2022-11-20T04:47:45;4.60;72.10
60495;DHT22;46342;49.046;11.920;2022-11-20T04:50:11;4.60;72.10
60495;DHT22;46342;49.046;11.920;2022-11-20T04:52:37;4.60;72.00
60495;DHT22;46342;49.046;11.920;2022-11-20T04:55:02;4.60;72.90
60495;DHT22;46342;49.046;11.920;2022-11-20T04:57:28;4.60;72.00
60495;DHT22;46342;49.046;11.920;2022-11-20T04:59:53;4.60;72.00
60495;DHT22;46342;49.046;11.920;2022-11-20T05:02:19;4.60;72.00
60495;DHT22;46342;49.046;11.920;2022-11-20T05:04:45;4.60;72.00
60495;DHT22;46342;49.046;11.920;2022-11-20T05:07:11;4.60;72.00
60495;DHT22;46342;49.046;11.920;2022-11-20T05:09:36;4.60;72.00
60495;DHT22;46342;49.046;11.920;2022-11-20T05:12:02;4.60;72.00
60495;DHT22;46342;49.046;11.920;2022-11-20T05:14:28;4.60;72.00
60495;DHT22;46342;49.046;11.920;2022-11-20T05:16:53;4.60;72.00
60495;DHT22;46342;49.046;11.920;2022-11-20T05:19:19;4.70;73.00
60495;DHT22;46342;49.046;11.920;2022-11-20T05:21:44;4.70;72.10
60495;DHT22;46342;49.046;11.920;2022-11-20T05:24:10;4.70;72.10
60495;DHT22;46342;49.046;11.920;2022-11-20T05:26:35;4.70;72.10
60495;DHT22;46342;49.046;11.920;2022-11-20T05:29:01;4.70;72.00
60495;DHT22;46342;49.046;11.920;2022-11-20T05:31:27;4.70;72.00
60495;DHT22;46342;49.046;11.920;2022-11-20T05:33:52;4.70;72.00
60495;DHT22;46342;49.046;11.920;2022-11-20T05:36:18;4.70;72.00
60495;DHT22;46342;49.046;11.920;2022-11-20T05:38:44;4.70;72.00
60495;DHT22;46342;49.046;11.920;2022-11-20T05:41:15;4.70;72.10
60495;DHT22;46342;49.046;11.920;2022-11-20T05:43:42;4.70;72.10
60495;DHT22;46342;49.046;11.920;2022-11-20T05:46:10;4.70;72.10
60495;DHT22;46342;49.046;11.920;2022-11-20T05:48:37;4.70;72.10
60495;DHT22;46342;49.046;11.920;2022-11-20T05:51:04;4.70;72.10
60495;DHT22;46342;49.046;11.920;2022-11-20T05:53:32;4.70;72.10
60495;DHT22;46342;49.046;11.920;2022-11-20T05:56:20;4.70;72.10
60495;DHT22;46342;49.046;11.920;2022-11-20T05:58:47;4.70;72.00
60495;DHT22;46342;49.046;11.920;2022-11-20T06:01:15;4.70;72.00
60495;DHT22;46342;49.046;11.920;2022-11-20T06:03:42;4.70;72.00
60495;DHT22;46342;49.046;11.920;2022-11-20T06:06:09;4.70;72.00
60495;DHT22;46342;49.046;11.920;2022-11-20T06:08:35;4.70;72.00
60495;DHT22;46342;49.046;11.920;2022-11-20T06:11:05;4.70;72.00
60495;DHT22;46342;49.046;11.920;2022-11-20T06:13:31;4.70;72.10
60495;DHT22;46342;49.046;11.920;2022-11-20T06:15:57;4.70;72.00
60495;DHT22;46342;49.046;11.920;2022-11-20T06:18:22;4.70;72.00
60495;DHT22;46342;49.046;11.920;2022-11-20T06:20:48;4.80;72.20
60495;DHT22;46342;49.046;11.920;2022-11-20T06:23:13;4.70;72.00
60495;DHT22;46342;49.046;11.920;2022-11-20T06:25:40;4.70;71.90
60495;DHT22;46342;49.046;11.920;2022-11-20T06:28:06;4.80;72.00
60495;DHT22;46342;49.046;11.920;2022-11-20T06:30:32;4.70;71.90
60495;DHT22;46342;49.046;11.920;2022-11-20T06:32:58;4.70;71.90
60495;DHT22;46342;49.046;11.920;2022-11-20T06:35:24;4.70;72.00
60495;DHT22;46342;49.046;11.920;2022-11-20T06:37:49;4.70;72.00
60495;DHT22;46342;49.046;11.920;2022-11-20T06:40:15;4.70;72.10
60495;DHT22;46342;49.046;11.920;2022-11-20T06:42:41;4.70;72.10
60495;DHT22;46342;49.046;11.920;2022-11-20T06:45:07;4.70;72.10
60495;DHT22;46342;49.046;11.920;2022-11-20T06:47:33;4.70;72.10
60495;DHT22;46342;49.046;11.920;2022-11-20T06:49:59;4.80;72.30
60495;DHT22;46342;49.046;11.920;2022-11-20T06:52:24;4.70;72.20
60495;DHT22;46342;49.046;11.920;2022-11-20T06:54:50;4.70;72.20
60495;DHT22;46342;49.046;11.920;2022-11-20T06:57:15;4.80;72.30
60495;DHT22;46342;49.046;11.920;2022-11-20T06:59:41;4.80;72.30
60495;DHT22;46342;49.046;11.920;2022-11-20T07:02:10;4.80;72.30
60495;DHT22;46342;49.046;11.920;2022-11-20T07:04:36;4.80;72.30
60495;DHT22;46342;49.046;11.920;2022-11-20T07:07:02;4.80;72.20
60495;DHT22;46342;49.046;11.920;2022-11-20T07:09:27;4.80;72.20
60495;DHT22;46342;49.046;11.920;2022-11-20T07:11:53;4.80;72.20
60495;DHT22;46342;49.046;11.920;2022-11-20T07:14:18;4.80;72.30
60495;DHT22;46342;49.046;11.920;2022-11-20T07:16:44;4.80;72.40
60495;DHT22;46342;49.046;11.920;2022-11-20T07:19:09;4.80;72.40
60495;DHT22;46342;49.046;11.920;2022-11-20T07:21:35;4.80;72.40
60495;DHT22;46342;49.046;11.920;2022-11-20T07:24:01;4.90;72.60
60495;DHT22;46342;49.046;11.920;2022-11-20T07:26:26;4.80;72.50
60495;DHT22;46342;49.046;11.920;2022-11-20T07:28:52;4.80;72.60
60495;DHT22;46342;49.046;11.920;2022-11-20T07:31:17;4.90;72.70
60495;DHT22;46342;49.046;11.920;2022-11-20T07:33:43;4.90;72.70
60495;DHT22;46342;49.046;11.920;2022-11-20T07:36:08;4.90;72.70
60495;DHT22;46342;49.046;11.920;2022-11-20T07:38:34;4.90;72.70
60495;DHT22;46342;49.046;11.920;2022-11-20T07:40:59;4.90;72.80
60495;DHT22;46342;49.046;11.920;2022-11-20T07:43:28;4.90;72.80
60495;DHT22;46342;49.046;11.920;2022-11-20T07:45:58;4.90;72.80
60495;DHT22;46342;49.046;11.920;2022-11-20T07:48:24;4.90;73.00
60495;DHT22;46342;49.046;11.920;2022-11-20T07:50:53;4.90;72.80
60495;DHT22;46342;49.046;11.920;2022-11-20T07:53:19;5.00;73.10
60495;DHT22;46342;49.046;11.920;2022-11-20T07:55:47;5.00;73.00
60495;DHT22;46342;49.046;11.920;2022-11-20T07:58:12;5.00;73.10
60495;DHT22;46342;49.046;11.920;2022-11-20T08:00:39;5.00;73.10
60495;DHT22;46342;49.046;11.920;2022-11-20T08:03:06;5.00;73.10
60495;DHT22;46342;49.046;11.920;2022-11-20T08:05:31;5.00;73.10
60495;DHT22;46342;49.046;11.920;2022-11-20T08:07:57;5.10;73.30
60495;DHT22;46342;49.046;11.920;2022-11-20T08:10:22;5.00;73.20
60495;DHT22;46342;49.046;11.920;2022-11-20T08:12:50;5.10;73.30
60495;DHT22;46342;49.046;11.920;2022-11-20T08:15:36;5.10;73.50
60495;DHT22;46342;49.046;11.920;2022-11-20T08:18:07;5.10;73.40
60495;DHT22;46342;49.046;11.920;2022-11-20T08:20:34;5.10;73.50
60495;DHT22;46342;49.046;11.920;2022-11-20T08:23:04;5.10;73.40
60495;DHT22;46342;49.046;11.920;2022-11-20T08:25:32;5.20;73.60
60495;DHT22;46342;49.046;11.920;2022-11-20T08:27:58;5.20;73.60
60495;DHT22;46342;49.046;11.920;2022-11-20T08:30:25;5.20;73.50
60495;DHT22;46342;49.046;11.920;2022-11-20T08:32:50;5.20;73.60
60495;DHT22;46342;49.046;11.920;2022-11-20T08:35:16;5.20;73.50
60495;DHT22;46342;49.046;11.920;2022-11-20T08:37:41;5.30;73.60
60495;DHT22;46342;49.046;11.920;2022-11-20T08:40:10;5.30;73.60
60495;DHT22;46342;49.046;11.920;2022-11-20T08:42:36;5.30;73.70
60495;DHT22;46342;49.046;11.920;2022-11-20T08:45:02;5.30;73.60
60495;DHT22;46342;49.046;11.920;2022-11-20T08:47:28;5.30;73.60
60495;DHT22;46342;49.046;11.920;2022-11-20T08:49:54;5.40;73.70
60495;DHT22;46342;49.046;11.920;2022-11-20T08:52:19;5.40;73.70
60495;DHT22;46342;49.046;11.920;2022-11-20T08:54:45;5.40;73.70
60495;DHT22;46342;49.046;11.920;2022-11-20T08:57:10;5.40;73.70
60495;DHT22;46342;49.046;11.920;2022-11-20T08:59:36;5.40;73.70
60495;DHT22;46342;49.046;11.920;2022-11-20T09:02:01;5.40;73.80
60495;DHT22;46342;49.046;11.920;2022-11-20T09:04:27;5.50;74.00
60495;DHT22;46342;49.046;11.920;2022-11-20T09:06:53;5.50;74.00
60495;DHT22;46342;49.046;11.920;2022-11-20T09:09:18;5.50;74.40
60495;DHT22;46342;49.046;11.920;2022-11-20T09:11:44;5.50;74.20
60495;DHT22;46342;49.046;11.920;2022-11-20T09:14:10;5.60;74.30
60495;DHT22;46342;49.046;11.920;2022-11-20T09:16:35;5.60;74.50
60495;DHT22;46342;49.046;11.920;2022-11-20T09:19:01;5.60;74.50
60495;DHT22;46342;49.046;11.920;2022-11-20T09:21:26;5.60;74.50
60495;DHT22;46342;49.046;11.920;2022-11-20T09:23:52;5.70;74.70
60495;DHT22;46342;49.046;11.920;2022-11-20T09:26:18;5.70;74.70
60495;DHT22;46342;49.046;11.920;2022-11-20T09:28:44;5.80;74.80
60495;DHT22;46342;49.046;11.920;2022-11-20T09:31:23;5.80;74.90
60495;DHT22;46342;49.046;11.920;2022-11-20T09:33:49;5.90;75.40
60495;DHT22;46342;49.046;11.920;2022-11-20T09:36:15;6.00;75.10
60495;DHT22;46342;49.046;11.920;2022-11-20T09:38:41;5.90;75.00
60495;DHT22;46342;49.046;11.920;2022-11-20T09:41:12;6.00;75.10
60495;DHT22;46342;49.046;11.920;2022-11-20T09:52:32;6.20;75.30
60495;DHT22;46342;49.046;11.920;2022-11-20T09:55:03;6.20;75.10
60495;DHT22;46342;49.046;11.920;2022-11-20T09:57:41;6.20;74.70
60495;DHT22;46342;49.046;11.920;2022-11-20T10:00:13;6.30;75.10
60495;DHT22;46342;49.046;11.920;2022-11-20T10:05:45;6.30;74.90
60495;DHT22;46342;49.046;11.920;2022-11-20T10:08:16;6.30;75.00
60495;DHT22;46342;49.046;11.920;2022-11-20T10:10:49;6.40;75.00
60495;DHT22;46342;49.046;11.920;2022-11-20T10:29:47;6.50;75.20
60495;DHT22;46342;49.046;11.920;2022-11-20T10:32:19;6.60;75.20
60495;DHT22;46342;49.046;11.920;2022-11-20T10:35:01;6.60;75.30
60495;DHT22;46342;49.046;11.920;2022-11-20T10:37:31;6.60;75.60
60495;DHT22;46342;49.046;11.920;2022-11-20T10:40:09;6.60;75.20
60495;DHT22;46342;49.046;11.920;2022-11-20T10:42:45;6.80;75.70
60495;DHT22;46342;49.046;11.920;2022-11-20T10:47:54;6.70;75.60
60495;DHT22;46342;49.046;11.920;2022-11-20T10:50:21;6.70;75.20
60495;DHT22;46342;49.046;11.920;2022-11-20T10:52:56;6.80;75.40
60495;DHT22;46342;49.046;11.920;2022-11-20T10:55:37;6.80;75.60
60495;DHT22;46342;49.046;11.920;2022-11-20T10:58:13;6.80;75.60
60495;DHT22;46342;49.046;11.920;2022-11-20T11:00:39;6.80;75.30
60495;DHT22;46342;49.046;11.920;2022-11-20T11:03:24;6.90;75.40
60495;DHT22;46342;49.046;11.920;2022-11-20T11:05:56;6.90;75.80
60495;DHT22;46342;49.046;11.920;2022-11-20T11:08:26;6.90;75.50
60495;DHT22;46342;49.046;11.920;2022-11-20T11:10:58;6.90;75.40
60495;DHT22;46342;49.046;11.920;2022-11-20T11:13:30;7.00;75.40
60495;DHT22;46342;49.046;11.920;2022-11-20T11:15:57;7.00;75.30
60495;DHT22;46342;49.046;11.920;2022-11-20T11:20:54;7.00;75.30
60495;DHT22;46342;49.046;11.920;2022-11-20T11:25:59;7.10;75.50
60495;DHT22;46342;49.046;11.920;2022-11-20T11:28:26;7.10;75.30
60495;DHT22;46342;49.046;11.920;2022-11-20T11:30:54;7.10;75.30
60495;DHT22;46342;49.046;11.920;2022-11-20T11:33:25;7.10;75.40
60495;DHT22;46342;49.046;11.920;2022-11-20T11:36:03;7.10;75.60
60495;DHT22;46342;49.046;11.920;2022-11-20T11:38:43;7.20;75.90
60495;DHT22;46342;49.046;11.920;2022-11-20T11:41:15;7.20;75.90
60495;DHT22;46342;49.046;11.920;2022-11-20T11:43:56;7.20;75.80
60495;DHT22;46342;49.046;11.920;2022-11-20T11:46:52;7.30;76.00
60495;DHT22;46342;49.046;11.920;2022-11-20T11:49:19;7.30;76.00
60495;DHT22;46342;49.046;11.920;2022-11-20T11:54:58;7.30;76.00
60495;DHT22;46342;49.046;11.920;2022-11-20T11:57:50;7.30;75.60
60495;DHT22;46342;49.046;11.920;2022-11-20T12:00:20;7.40;76.20
60495;DHT22;46342;49.046;11.920;2022-11-20T12:05:36;7.40;75.80
60495;DHT22;46342;49.046;11.920;2022-11-20T12:11:04;7.50;76.20
60495;DHT22;46342;49.046;11.920;2022-11-20T12:13:40;7.50;75.80
60495;DHT22;46342;49.046;11.920;2022-11-20T12:16:13;7.50;75.90
60495;DHT22;46342;49.046;11.920;2022-11-20T12:18:40;7.50;75.70
60495;DHT22;46342;49.046;11.920;2022-11-20T12:43:24;7.70;75.90
60495;DHT22;46342;49.046;11.920;2022-11-20T12:51:14;7.80;75.80
60495;DHT22;46342;49.046;11.920;2022-11-20T12:54:04;7.70;75.60
60495;DHT22;46342;49.046;11.920;2022-11-20T12:56:40;7.80;76.00
60495;DHT22;46342;49.046;11.920;2022-11-20T13:07:40;7.80;75.90
60495;DHT22;46342;49.046;11.920;2022-11-20T13:10:15;7.90;75.90
60495;DHT22;46342;49.046;11.920;2022-11-20T13:12:45;7.90;76.00
60495;DHT22;46342;49.046;11.920;2022-11-20T13:15:33;7.90;75.90
60495;DHT22;46342;49.046;11.920;2022-11-20T13:18:03;7.90;76.10
60495;DHT22;46342;49.046;11.920;2022-11-20T13:20:32;7.90;75.90
60495;DHT22;46342;49.046;11.920;2022-11-20T13:22:58;8.00;76.00
60495;DHT22;46342;49.046;11.920;2022-11-20T13:27:51;8.00;76.00
60495;DHT22;46342;49.046;11.920;2022-11-20T13:30:20;8.00;76.00
60495;DHT22;46342;49.046;11.920;2022-11-20T13:33:04;8.10;76.10
60495;DHT22;46342;49.046;11.920;2022-11-20T13:38:08;8.10;76.00
60495;DHT22;46342;49.046;11.920;2022-11-20T13:40:50;8.10;75.90
60495;DHT22;46342;49.046;11.920;2022-11-20T13:43:37;8.10;75.70
60495;DHT22;46342;49.046;11.920;2022-11-20T13:46:05;8.20;76.00
60495;DHT22;46342;49.046;11.920;2022-11-20T13:48:39;8.10;75.60
60495;DHT22;46342;49.046;11.920;2022-11-20T13:51:35;8.20;75.80
60495;DHT22;46342;49.046;11.920;2022-11-20T14:02:18;8.10;75.50
60495;DHT22;46342;49.046;11.920;2022-11-20T14:04:47;8.10;75.50
60495;DHT22;46342;49.046;11.920;2022-11-20T14:07:14;8.10;75.50
60495;DHT22;46342;49.046;11.920;2022-11-20T14:09:50;8.20;75.50
60495;DHT22;46342;49.046;11.920;2022-11-20T14:12:18;8.20;75.60
60495;DHT22;46342;49.046;11.920;2022-11-20T14:14:52;8.20;75.50
60495;DHT22;46342;49.046;11.920;2022-11-20T14:17:21;8.20;75.60
60495;DHT22;46342;49.046;11.920;2022-11-20T14:19:49;8.20;75.60
60495;DHT22;46342;49.046;11.920;2022-11-20T14:22:26;8.10;75.50
60495;DHT22;46342;49.046;11.920;2022-11-20T14:25:20;8.20;75.70
60495;DHT22;46342;49.046;11.920;2022-11-20T14:27:54;8.20;75.80
60495;DHT22;46342;49.046;11.920;2022-11-20T14:30:23;8.20;75.40
60495;DHT22;46342;49.046;11.920;2022-11-20T14:32:49;8.20;75.30
60495;DHT22;46342;49.046;11.920;2022-11-20T14:35:27;8.20;75.20
60495;DHT22;46342;49.046;11.920;2022-11-20T14:37:55;8.20;75.40
60495;DHT22;46342;49.046;11.920;2022-11-20T14:42:48;8.10;75.10
60495;DHT22;46342;49.046;11.920;2022-11-20T14:45:14;8.10;75.00
60495;DHT22;46342;49.046;11.920;2022-11-20T14:47:41;8.10;74.90
60495;DHT22;46342;49.046;11.920;2022-11-20T14:50:14;8.10;74.80
60495;DHT22;46342;49.046;11.920;2022-11-20T14:52:50;8.10;74.80
60495;DHT22;46342;49.046;11.920;2022-11-20T14:55:26;8.10;74.80
60495;DHT22;46342;49.046;11.920;2022-11-20T14:57:56;8.10;74.90
60495;DHT22;46342;49.046;11.920;2022-11-20T15:00:23;8.10;74.90
60495;DHT22;46342;49.046;11.920;2022-11-20T15:02:50;8.00;74.80
60495;DHT22;46342;49.046;11.920;2022-11-20T15:05:18;8.00;74.90
60495;DHT22;46342;49.046;11.920;2022-11-20T15:07:47;8.00;75.00
60495;DHT22;46342;49.046;11.920;2022-11-20T15:10:25;8.10;75.10
60495;DHT22;46342;49.046;11.920;2022-11-20T15:12:58;8.00;75.30
60495;DHT22;46342;49.046;11.920;2022-11-20T15:17:53;8.00;75.20
60495;DHT22;46342;49.046;11.920;2022-11-20T15:20:20;8.00;75.20
60495;DHT22;46342;49.046;11.920;2022-11-20T15:22:46;8.00;75.30
60495;DHT22;46342;49.046;11.920;2022-11-20T15:25:14;8.00;75.30
60495;DHT22;46342;49.046;11.920;2022-11-20T15:27:40;8.00;75.40
60495;DHT22;46342;49.046;11.920;2022-11-20T15:32:40;8.00;75.60
60495;DHT22;46342;49.046;11.920;2022-11-20T15:35:07;8.00;75.40
60495;DHT22;46342;49.046;11.920;2022-11-20T15:37:33;8.00;75.40
60495;DHT22;46342;49.046;11.920;2022-11-20T15:39:58;8.00;75.40
60495;DHT22;46342;49.046;11.920;2022-11-20T15:42:24;8.00;75.20
60495;DHT22;46342;49.046;11.920;2022-11-20T15:44:49;7.90;75.70
60495;DHT22;46342;49.046;11.920;2022-11-20T15:47:15;7.90;74.60
60495;DHT22;46342;49.046;11.920;2022-11-20T15:49:42;7.90;74.40
60495;DHT22;46342;49.046;11.920;2022-11-20T15:52:09;7.90;74.20
60495;DHT22;46342;49.046;11.920;2022-11-20T15:54:35;8.00;74.30
60495;DHT22;46342;49.046;11.920;2022-11-20T15:57:00;7.80;74.00
60495;DHT22;46342;49.046;11.920;2022-11-20T15:59:28;7.80;74.10
60495;DHT22;46342;49.046;11.920;2022-11-20T16:01:53;7.80;74.20
60495;DHT22;46342;49.046;11.920;2022-11-20T16:04:19;7.70;74.10
60495;DHT22;46342;49.046;11.920;2022-11-20T16:06:44;7.70;74.10
60495;DHT22;46342;49.046;11.920;2022-11-20T16:09:10;7.70;74.10
60495;DHT22;46342;49.046;11.920;2022-11-20T16:11:36;7.70;74.10
60495;DHT22;46342;49.046;11.920;2022-11-20T16:14:03;7.60;73.90
60495;DHT22;46342;49.046;11.920;2022-11-20T16:16:47;7.60;74.00
60495;DHT22;46342;49.046;11.920;2022-11-20T16:19:13;7.60;74.00
60495;DHT22;46342;49.046;11.920;2022-11-20T16:21:40;7.60;74.10
60495;DHT22;46342;49.046;11.920;2022-11-20T16:24:09;7.60;74.00
60495;DHT22;46342;49.046;11.920;2022-11-20T16:26:36;7.60;74.10
60495;DHT22;46342;49.046;11.920;2022-11-20T16:29:03;7.50;74.00
60495;DHT22;46342;49.046;11.920;2022-11-20T16:31:29;7.50;74.10
60495;DHT22;46342;49.046;11.920;2022-11-20T16:33:57;7.50;74.00
60495;DHT22;46342;49.046;11.920;2022-11-20T16:36:24;7.50;74.00
60495;DHT22;46342;49.046;11.920;2022-11-20T16:38:55;7.50;74.00
60495;DHT22;46342;49.046;11.920;2022-11-20T16:41:21;7.50;73.90
60495;DHT22;46342;49.046;11.920;2022-11-20T16:43:49;7.40;74.70
60495;DHT22;46342;49.046;11.920;2022-11-20T16:46:16;7.40;73.80
60495;DHT22;46342;49.046;11.920;2022-11-20T16:48:42;7.40;73.80
60495;DHT22;46342;49.046;11.920;2022-11-20T16:51:09;7.40;73.80
60495;DHT22;46342;49.046;11.920;2022-11-20T16:53:36;7.40;73.70
60495;DHT22;46342;49.046;11.920;2022-11-20T16:56:15;7.40;73.80
60495;DHT22;46342;49.046;11.920;2022-11-20T16:58:42;7.40;73.70
60495;DHT22;46342;49.046;11.920;2022-11-20T17:01:10;7.30;73.70
60495;DHT22;46342;49.046;11.920;2022-11-20T17:03:40;7.30;73.60
60495;DHT22;46342;49.046;11.920;2022-11-20T17:06:16;7.30;73.60
60495;DHT22;46342;49.046;11.920;2022-11-20T17:08:42;7.30;73.50
60495;DHT22;46342;49.046;11.920;2022-11-20T17:11:11;7.30;73.60
60495;DHT22;46342;49.046;11.920;2022-11-20T17:13:37;7.20;73.40
60495;DHT22;46342;49.046;11.920;2022-11-20T17:16:04;7.20;74.20
60495;DHT22;46342;49.046;11.920;2022-11-20T17:18:30;7.20;73.30
60495;DHT22;46342;49.046;11.920;2022-11-20T17:20:56;7.10;73.20
60495;DHT22;46342;49.046;11.920;2022-11-20T17:23:22;7.10;73.20
60495;DHT22;46342;49.046;11.920;2022-11-20T17:25:47;7.00;73.00
60495;DHT22;46342;49.046;11.920;2022-11-20T17:28:13;7.10;73.20
60495;DHT22;46342;49.046;11.920;2022-11-20T17:30:39;7.00;73.00